createdAt,value
2018-11-23T00:00:18.899Z,4.30
2018-11-23T00:02:48.261Z,4.30
2018-11-23T00:05:16.783Z,4.40
2018-11-23T00:07:45.787Z,4.30
2018-11-23T00:10:19.500Z,4.50
2018-11-23T00:12:48.260Z,4.40
2018-11-23T00:15:18.114Z,4.30
2018-11-23T00:17:46.723Z,4.20
2018-11-23T00:20:16.415Z,4.30
2018-11-23T00:22:45.061Z,4.30
2018-11-23T00:25:15.291Z,4.30
2018-11-23T00:27:43.908Z,4.30
2018-11-23T00:30:17.785Z,4.10
2018-11-23T00:32:47.188Z,4.20
2018-11-23T00:35:17.427Z,4.30
2018-11-23T00:37:46.519Z,4.80
2018-11-23T00:40:22.526Z,4.40
2018-11-23T00:42:51.445Z,4.30
2018-11-23T00:45:20.041Z,4.20
2018-11-23T00:47:49.104Z,4.40
2018-11-23T00:50:18.972Z,4.60
2018-11-23T00:52:48.080Z,4.30
2018-11-23T00:55:17.933Z,4.40
2018-11-23T00:57:46.507Z,4.30
2018-11-23T01:00:18.082Z,4.20
2018-11-23T01:02:46.743Z,3.70
2018-11-23T01:05:16.633Z,4.10
2018-11-23T01:07:45.617Z,4.30
2018-11-23T01:10:15.715Z,4.40
2018-11-23T01:12:45.572Z,4.70
2018-11-23T01:15:14.255Z,4.50
2018-11-23T01:17:42.862Z,4.60
2018-11-23T01:20:14.851Z,4.50
2018-11-23T01:22:43.510Z,4.40
2018-11-23T01:25:13.290Z,4.20
2018-11-23T01:27:42.834Z,4.40
2018-11-23T01:30:17.004Z,4.20
2018-11-23T01:32:45.584Z,4.30
2018-11-23T01:35:14.528Z,4.10
2018-11-23T01:37:43.322Z,4.30
2018-11-23T01:40:16.803Z,4.10
2018-11-23T01:42:45.873Z,4.00
2018-11-23T01:45:14.913Z,4.00
2018-11-23T01:47:43.492Z,3.90
2018-11-23T01:50:15.264Z,4.00
2018-11-23T01:52:45.168Z,3.90
2018-11-23T01:55:14.496Z,4.00
2018-11-23T01:57:43.500Z,4.00
2018-11-23T02:00:14.790Z,4.00
2018-11-23T02:02:43.736Z,4.20
2018-11-23T02:05:12.380Z,4.10
2018-11-23T02:07:40.952Z,4.10
2018-11-23T02:10:10.920Z,4.10
2018-11-23T02:12:39.498Z,4.00
2018-11-23T02:15:10.794Z,4.00
2018-11-23T02:17:39.404Z,3.90
2018-11-23T02:20:09.868Z,3.90
2018-11-23T02:22:38.534Z,3.90
2018-11-23T02:25:07.529Z,3.90
2018-11-23T02:27:36.208Z,3.90
2018-11-23T02:30:07.962Z,3.90
2018-11-23T02:32:36.567Z,3.90
2018-11-23T02:35:05.659Z,4.00
2018-11-23T02:37:34.222Z,4.00
2018-11-23T02:40:02.842Z,4.00
2018-11-23T02:42:31.383Z,4.10
2018-11-23T02:44:59.905Z,4.10
2018-11-23T02:47:28.467Z,4.10
2018-11-23T02:52:25.219Z,4.00
2018-11-23T02:54:53.789Z,4.10
2018-11-23T02:57:22.318Z,4.20
2018-11-23T02:59:50.917Z,4.20
2018-11-23T03:02:19.473Z,4.10
2018-11-23T03:04:48.029Z,4.10
2018-11-23T03:07:16.563Z,3.60
2018-11-23T03:09:45.113Z,3.90
2018-11-23T03:12:13.668Z,4.00
2018-11-23T03:14:42.219Z,3.90
2018-11-23T03:19:39.073Z,4.00
2018-11-23T03:22:07.659Z,3.90
2018-11-23T03:24:36.313Z,3.90
2018-11-23T03:27:04.916Z,3.90
2018-11-23T03:29:33.463Z,3.40
2018-11-23T03:32:02.074Z,3.90
2018-11-23T03:34:30.650Z,3.80
2018-11-23T03:36:59.172Z,3.90
2018-11-23T03:39:30.399Z,3.70
2018-11-23T03:41:56.246Z,3.80
2018-11-23T03:44:24.843Z,3.80
2018-11-23T03:46:53.404Z,3.70
2018-11-23T03:51:50.176Z,3.70
2018-11-23T03:54:18.778Z,3.80
2018-11-23T03:56:47.351Z,5.80
2018-11-23T03:59:15.911Z,3.70
2018-11-23T04:01:44.437Z,3.70
2018-11-23T04:04:13.021Z,3.60
2018-11-23T04:06:41.602Z,3.60
2018-11-23T04:09:10.183Z,3.50
2018-11-23T04:11:38.734Z,3.20
2018-11-23T04:14:07.339Z,3.60
2018-11-23T04:16:35.898Z,3.60
2018-11-23T04:19:04.460Z,3.60
2018-11-23T04:21:32.972Z,3.40
2018-11-23T04:24:01.598Z,3.40
2018-11-23T04:26:30.165Z,3.50
2018-11-23T04:28:58.742Z,3.50
2018-11-23T04:31:27.287Z,3.60
2018-11-23T04:33:55.849Z,3.60
2018-11-23T04:36:24.766Z,3.60
2018-11-23T04:38:53.331Z,3.60
2018-11-23T04:41:21.894Z,3.60
2018-11-23T04:43:50.850Z,3.60
2018-11-23T04:46:19.439Z,3.50
2018-11-23T04:48:48.076Z,3.50
2018-11-23T04:51:16.713Z,3.90
2018-11-23T04:53:45.336Z,3.50
2018-11-23T04:56:14.152Z,3.30
2018-11-23T04:58:42.697Z,3.50
2018-11-23T05:03:40.393Z,3.30
2018-11-23T05:06:09.192Z,3.30
2018-11-23T05:08:37.796Z,3.70
2018-11-23T05:11:06.378Z,3.10
2018-11-23T05:13:35.076Z,3.30
2018-11-23T05:16:03.661Z,3.40
2018-11-23T05:18:32.403Z,3.40
2018-11-23T05:21:00.991Z,3.40
2018-11-23T05:23:29.632Z,3.40
2018-11-23T05:25:58.389Z,2.90
2018-11-23T05:28:26.994Z,3.40
2018-11-23T05:30:55.538Z,3.80
2018-11-23T05:33:24.089Z,3.60
2018-11-23T05:35:52.615Z,3.20
2018-11-23T05:38:21.129Z,3.70
2018-11-23T05:40:49.658Z,3.40
2018-11-23T05:43:18.193Z,3.40
2018-11-23T05:45:46.786Z,3.10
2018-11-23T05:48:15.379Z,3.20
2018-11-23T05:50:43.920Z,3.00
2018-11-23T05:53:12.461Z,3.20
2018-11-23T05:55:41.486Z,3.50
2018-11-23T05:58:10.147Z,3.90
2018-11-23T06:00:38.822Z,3.60
2018-11-23T06:03:07.453Z,3.10
2018-11-23T06:08:04.374Z,3.40
2018-11-23T06:10:33.030Z,3.40
2018-11-23T06:15:29.900Z,3.20
2018-11-23T06:17:58.448Z,3.40
2018-11-23T06:20:27.023Z,3.40
2018-11-23T06:22:56.121Z,3.20
2018-11-23T06:26:28.510Z,3.40
2018-11-23T06:28:57.318Z,3.40
2018-11-23T06:31:25.911Z,3.50
2018-11-23T06:33:54.498Z,3.40
2018-11-23T06:36:23.061Z,3.90
2018-11-23T06:38:51.611Z,3.30
2018-11-23T06:41:20.120Z,3.50
2018-11-23T06:43:48.675Z,3.30
2018-11-23T06:46:17.167Z,3.30
2018-11-23T06:48:45.658Z,2.90
2018-11-23T06:51:14.181Z,3.30
2018-11-23T06:53:42.742Z,3.40
2018-11-23T06:56:11.270Z,3.30
2018-11-23T07:01:10.528Z,3.20
2018-11-23T07:03:39.736Z,3.20
2018-11-23T07:06:09.063Z,3.10
2018-11-23T07:08:39.414Z,2.90
2018-11-23T07:11:09.033Z,3.40
2018-11-23T07:13:37.841Z,3.30
2018-11-23T07:16:06.495Z,3.10
2018-11-23T07:18:35.031Z,3.00
2018-11-23T07:21:03.549Z,3.10
2018-11-23T07:26:00.347Z,2.90
2018-11-23T07:28:28.859Z,3.10
2018-11-23T07:31:02.074Z,3.00
2018-11-23T07:33:26.359Z,3.20
2018-11-23T07:35:54.866Z,3.20
2018-11-23T07:38:23.385Z,3.20
2018-11-23T07:41:03.064Z,3.40
2018-11-23T07:43:31.603Z,3.60
2018-11-23T07:46:00.121Z,3.20
2018-11-23T07:48:28.615Z,3.20
2018-11-23T07:50:57.279Z,3.20
2018-11-23T07:53:26.046Z,2.90
2018-11-23T07:55:54.767Z,3.30
2018-11-23T07:58:24.021Z,3.00
2018-11-23T08:00:53.478Z,3.00
2018-11-23T08:05:50.220Z,3.00
2018-11-23T08:08:18.811Z,3.10
2018-11-23T08:13:14.873Z,3.10
2018-11-23T08:15:43.446Z,3.10
2018-11-23T08:18:11.993Z,3.10
2018-11-23T08:23:08.725Z,3.00
2018-11-23T08:25:37.237Z,3.10
2018-11-23T08:28:05.820Z,3.20
2018-11-23T08:30:34.399Z,3.40
2018-11-23T08:33:02.896Z,3.40
2018-11-23T08:35:31.431Z,3.20
2018-11-23T08:37:59.942Z,3.10
2018-11-23T08:40:28.525Z,3.30
2018-11-23T08:42:57.389Z,3.30
2018-11-23T08:45:26.949Z,3.20
2018-11-23T08:47:55.513Z,3.10
2018-11-23T08:50:25.556Z,3.20
2018-11-23T08:52:54.111Z,3.10
2018-11-23T08:55:22.939Z,3.30
2018-11-23T08:57:51.489Z,3.30
2018-11-23T09:00:21.629Z,3.60
2018-11-23T09:02:51.579Z,3.40
2018-11-23T09:05:20.218Z,3.50
2018-11-23T09:07:49.834Z,3.50
2018-11-23T09:10:19.951Z,3.50
2018-11-23T09:12:51.042Z,3.50
2018-11-23T09:15:19.632Z,3.40
2018-11-23T09:17:48.183Z,3.40
2018-11-23T09:20:17.304Z,3.40
2018-11-23T09:22:45.913Z,3.30
2018-11-23T09:25:16.862Z,3.30
2018-11-23T09:27:45.379Z,3.30
2018-11-23T09:30:16.690Z,3.30
2018-11-23T09:32:45.887Z,3.50
2018-11-23T09:35:14.410Z,3.30
2018-11-23T09:37:43.246Z,3.40
2018-11-23T09:40:14.394Z,3.40
2018-11-23T09:42:43.072Z,3.40
2018-11-23T09:45:14.194Z,3.40
2018-11-23T09:47:43.128Z,3.40
2018-11-23T09:50:13.439Z,3.50
2018-11-23T09:52:42.012Z,3.50
2018-11-23T09:55:10.747Z,3.50
2018-11-23T09:57:39.720Z,3.40
2018-11-23T10:00:12.124Z,3.60
2018-11-23T10:02:40.841Z,3.70
2018-11-23T10:05:10.319Z,3.50
2018-11-23T10:07:38.871Z,3.20
2018-11-23T10:10:08.811Z,3.40
2018-11-23T10:12:37.388Z,3.50
2018-11-23T10:15:06.852Z,3.50
2018-11-23T10:17:35.434Z,3.50
2018-11-23T10:20:04.708Z,3.50
2018-11-23T10:25:01.459Z,3.40
2018-11-23T10:27:30.090Z,3.40
2018-11-23T10:29:58.627Z,3.40
2018-11-23T10:32:27.216Z,3.40
2018-11-23T10:34:55.760Z,3.30
2018-11-23T10:37:24.328Z,3.50
2018-11-23T10:39:52.916Z,3.60
2018-11-23T10:42:21.470Z,3.50
2018-11-23T10:44:50.082Z,3.60
2018-11-23T10:47:18.631Z,3.70
2018-11-23T10:49:47.188Z,3.70
2018-11-23T10:52:15.732Z,3.80
2018-11-23T10:54:44.352Z,4.00
2018-11-23T10:57:12.884Z,3.80
2018-11-23T10:59:41.443Z,3.70
2018-11-23T11:02:15.275Z,3.80
2018-11-23T11:04:49.176Z,3.80
2018-11-23T11:07:17.767Z,3.70
2018-11-23T11:09:46.387Z,3.80
2018-11-23T11:12:14.962Z,3.70
2018-11-23T11:14:43.485Z,3.70
2018-11-23T11:17:12.076Z,3.70
2018-11-23T11:19:40.668Z,3.60
2018-11-23T11:22:09.518Z,3.50
2018-11-23T11:24:38.289Z,3.20
2018-11-23T11:27:07.053Z,3.50
2018-11-23T11:29:35.769Z,3.40
2018-11-23T11:32:04.373Z,3.10
2018-11-23T11:34:32.909Z,3.30
2018-11-23T11:37:01.556Z,3.20
2018-11-23T11:39:30.109Z,3.20
2018-11-23T11:41:58.729Z,3.20
2018-11-23T11:44:27.284Z,3.20
2018-11-23T11:46:55.859Z,3.10
2018-11-23T11:49:24.434Z,3.30
2018-11-23T11:51:52.989Z,3.20
2018-11-23T11:56:49.800Z,3.20
2018-11-23T11:59:18.366Z,3.20
2018-11-23T12:01:47.013Z,3.10
2018-11-23T12:04:15.509Z,3.30
2018-11-23T12:06:44.119Z,3.10
2018-11-23T12:09:12.670Z,3.00
2018-11-23T12:11:41.601Z,3.00
2018-11-23T12:14:10.173Z,3.00
2018-11-23T12:16:38.756Z,3.10
2018-11-23T12:19:08.133Z,2.70
2018-11-23T12:21:36.024Z,3.00
2018-11-23T12:24:04.634Z,3.00
2018-11-23T12:26:33.183Z,3.10
2018-11-23T12:29:01.739Z,2.90
2018-11-23T12:33:58.591Z,2.90
2018-11-23T12:36:27.143Z,3.10
2018-11-23T12:38:55.724Z,3.10
2018-11-23T12:41:24.334Z,3.10
2018-11-23T12:43:52.888Z,3.10
2018-11-23T12:46:21.518Z,2.90
2018-11-23T12:48:50.120Z,2.90
2018-11-23T12:51:18.730Z,3.10
2018-11-23T12:53:47.288Z,3.10
2018-11-23T12:56:15.906Z,3.10
2018-11-23T12:58:44.504Z,3.20
2018-11-23T13:01:13.108Z,2.90
2018-11-23T13:03:41.728Z,3.00
2018-11-23T13:06:10.349Z,3.00
2018-11-23T13:08:39.010Z,3.10
2018-11-23T13:11:07.626Z,3.20
2018-11-23T13:13:36.207Z,3.10
2018-11-23T13:16:04.934Z,3.00
2018-11-23T13:18:33.544Z,3.10
2018-11-23T13:21:02.165Z,3.20
2018-11-23T13:23:30.734Z,3.10
2018-11-23T13:25:59.294Z,3.30
2018-11-23T13:28:27.881Z,3.10
2018-11-23T13:30:56.470Z,3.10
2018-11-23T13:33:25.099Z,3.30
2018-11-23T13:35:53.725Z,3.60
2018-11-23T13:38:22.339Z,3.20
2018-11-23T13:40:50.979Z,3.30
2018-11-23T13:43:20.621Z,3.40
2018-11-23T13:45:49.237Z,3.20
2018-11-23T13:48:20.073Z,3.40
2018-11-23T13:50:46.473Z,3.30
2018-11-23T13:55:44.359Z,3.30
2018-11-23T13:58:12.952Z,3.50
2018-11-23T14:00:41.563Z,3.40
2018-11-23T14:03:10.453Z,3.80
2018-11-23T14:05:39.086Z,3.50
2018-11-23T14:08:07.704Z,3.40
2018-11-23T14:10:36.356Z,3.30
2018-11-23T14:13:11.372Z,3.40
2018-11-23T14:15:33.839Z,3.40
2018-11-23T14:18:02.460Z,3.60
2018-11-23T14:20:31.110Z,3.40
2018-11-23T14:22:59.776Z,3.60
2018-11-23T14:25:29.766Z,3.70
2018-11-23T14:27:58.731Z,3.60
2018-11-23T14:30:30.893Z,3.50
2018-11-23T14:33:00.157Z,3.50
2018-11-23T14:35:30.030Z,3.50
2018-11-23T14:37:59.593Z,3.40
2018-11-23T14:42:57.038Z,3.30
2018-11-23T14:45:27.361Z,3.40
2018-11-23T14:47:57.020Z,3.60
2018-11-23T14:52:59.305Z,3.10
2018-11-23T14:55:28.118Z,3.50
2018-11-23T14:57:57.069Z,3.20
2018-11-23T15:00:34.540Z,3.20
2018-11-23T15:03:04.047Z,3.40
2018-11-23T15:10:30.380Z,3.40
2018-11-23T15:13:00.077Z,3.20
2018-11-23T15:15:29.804Z,3.80
2018-11-23T15:17:59.267Z,3.50
2018-11-23T15:20:35.653Z,3.40
2018-11-23T15:23:07.312Z,3.80
2018-11-23T15:25:36.081Z,3.20
2018-11-23T15:28:05.183Z,3.40
2018-11-23T15:30:34.862Z,3.40
2018-11-23T15:33:04.116Z,3.70
2018-11-23T15:35:33.898Z,3.60
2018-11-23T15:38:06.002Z,3.50
2018-11-23T15:40:32.214Z,3.10
2018-11-23T15:43:02.370Z,3.50
2018-11-23T15:45:31.749Z,3.60
2018-11-23T15:48:00.851Z,3.40
2018-11-23T15:50:31.029Z,3.40
2018-11-23T15:52:59.617Z,3.60
2018-11-23T15:58:01.508Z,3.50
2018-11-23T16:00:31.560Z,3.60
2018-11-23T16:03:00.242Z,3.30
2018-11-23T16:05:28.902Z,3.60
2018-11-23T16:07:59.213Z,3.60
2018-11-23T16:10:35.438Z,3.70
2018-11-23T16:13:11.122Z,3.30
2018-11-23T16:15:35.553Z,3.60
2018-11-23T16:18:05.213Z,3.50
2018-11-23T16:25:35.250Z,3.40
2018-11-23T16:28:05.340Z,3.50
2018-11-23T16:30:36.202Z,3.30
2018-11-23T16:33:06.200Z,3.60
2018-11-23T16:35:36.220Z,3.40
2018-11-23T16:40:37.566Z,3.30
2018-11-23T16:43:07.685Z,3.60
2018-11-23T16:50:35.096Z,3.50
2018-11-23T16:55:33.092Z,3.70
2018-11-23T16:58:03.106Z,3.70
2018-11-23T17:00:34.032Z,3.40
2018-11-23T17:03:04.376Z,3.80
2018-11-23T17:05:34.722Z,3.70
2018-11-23T17:08:03.430Z,3.70
2018-11-23T17:10:32.101Z,3.80
2018-11-23T17:15:29.531Z,3.60
2018-11-23T17:17:58.954Z,3.50
2018-11-23T17:22:59.184Z,3.20
2018-11-23T17:25:29.425Z,3.70
2018-11-23T17:27:59.443Z,3.80
2018-11-23T17:30:30.438Z,4.20
2018-11-23T17:32:59.383Z,3.80
2018-11-23T17:35:28.591Z,3.80
2018-11-23T17:37:57.758Z,4.30
2018-11-23T17:40:28.920Z,4.10
2018-11-23T17:42:58.496Z,3.90
2018-11-23T17:45:28.614Z,3.70
2018-11-23T17:47:57.576Z,3.80
2018-11-23T17:50:28.770Z,4.00
2018-11-23T17:52:57.821Z,3.80
2018-11-23T17:55:26.626Z,3.90
2018-11-23T17:57:56.418Z,3.90
2018-11-23T18:00:26.577Z,3.80
2018-11-23T18:02:56.190Z,4.10
2018-11-23T18:05:25.735Z,4.00
2018-11-23T18:07:54.500Z,4.00
2018-11-23T18:10:24.504Z,3.80
2018-11-23T18:12:53.637Z,3.90
2018-11-23T18:15:24.229Z,3.40
2018-11-23T18:17:53.924Z,3.90
2018-11-23T18:20:23.659Z,4.00
2018-11-23T18:22:53.568Z,4.20
2018-11-23T18:25:27.729Z,3.80
2018-11-23T18:28:00.900Z,4.10
2018-11-23T18:30:36.951Z,4.20
2018-11-23T18:33:07.739Z,4.00
2018-11-23T18:35:39.494Z,4.40
2018-11-23T18:38:09.947Z,4.00
2018-11-23T18:40:38.772Z,4.10
2018-11-23T18:43:08.381Z,4.00
2018-11-23T18:45:38.065Z,4.10
2018-11-23T18:48:06.844Z,4.20
2018-11-23T18:50:36.084Z,4.10
2018-11-23T18:53:05.005Z,3.60
2018-11-23T18:55:35.785Z,4.10
2018-11-23T18:58:06.229Z,4.10
2018-11-23T19:00:35.020Z,4.10
2018-11-23T19:05:33.509Z,4.20
2018-11-23T19:08:02.189Z,4.10
2018-11-23T19:10:33.034Z,4.10
2018-11-23T19:13:02.896Z,4.00
2018-11-23T19:15:31.734Z,4.20
2018-11-23T19:18:03.510Z,4.00
2018-11-23T19:23:00.706Z,4.00
2018-11-23T19:25:30.671Z,4.30
2018-11-23T19:30:30.217Z,4.00
2018-11-23T19:32:59.096Z,4.20
2018-11-23T19:35:28.822Z,3.90
2018-11-23T19:37:58.926Z,4.30
2018-11-23T19:40:28.078Z,4.30
2018-11-23T19:42:57.124Z,4.20
2018-11-23T19:45:27.582Z,4.30
2018-11-23T19:47:57.139Z,4.20
2018-11-23T19:50:26.698Z,4.40
2018-11-23T19:52:55.580Z,4.80
2018-11-23T19:55:34.519Z,5.00
2018-11-23T19:58:04.178Z,4.80
2018-11-23T20:00:34.618Z,4.70
2018-11-23T20:03:03.386Z,4.40
2018-11-23T20:05:32.554Z,4.50
2018-11-23T20:10:30.608Z,4.10
2018-11-23T20:15:29.438Z,4.60
2018-11-23T20:17:58.476Z,4.50
2018-11-23T20:20:27.454Z,4.50
2018-11-23T20:22:56.226Z,4.50
2018-11-23T20:25:24.970Z,4.50
2018-11-23T20:30:22.608Z,4.60
2018-11-23T20:32:51.965Z,4.80
2018-11-23T20:35:21.960Z,4.50
2018-11-23T20:37:51.396Z,4.70
2018-11-23T20:40:23.660Z,4.90
2018-11-23T20:42:52.893Z,4.70
2018-11-23T20:45:22.089Z,4.50
2018-11-23T20:47:51.978Z,4.80
2018-11-23T20:50:21.096Z,4.90
2018-11-23T20:57:47.587Z,4.50
2018-11-23T21:00:18.271Z,4.50
2018-11-23T21:02:47.983Z,4.50
2018-11-23T21:05:18.714Z,4.70
2018-11-23T21:07:49.363Z,4.50
2018-11-23T21:10:26.503Z,4.70
2018-11-23T21:12:56.023Z,4.70
2018-11-23T21:15:28.897Z,4.80
2018-11-23T21:17:58.922Z,4.70
2018-11-23T21:20:28.245Z,4.60
2018-11-23T21:22:57.351Z,4.70
2018-11-23T21:25:26.019Z,4.90
2018-11-23T21:27:55.174Z,4.80
2018-11-23T21:30:25.608Z,4.80
2018-11-23T21:32:56.244Z,4.70
2018-11-23T21:37:53.644Z,4.90
2018-11-23T21:40:24.503Z,4.80
2018-11-23T21:42:53.199Z,4.80
2018-11-23T21:45:22.280Z,4.80
2018-11-23T21:47:51.000Z,4.50
2018-11-23T21:50:25.106Z,4.90
2018-11-23T21:52:50.169Z,4.80
2018-11-23T21:55:21.130Z,4.70
2018-11-23T21:57:52.135Z,4.70
2018-11-23T22:00:20.851Z,4.90
2018-11-23T22:02:49.528Z,4.90
2018-11-23T22:05:19.218Z,4.90
2018-11-23T22:07:47.949Z,4.80
2018-11-23T22:10:17.646Z,4.40
2018-11-23T22:12:46.433Z,4.80
2018-11-23T22:15:22.702Z,4.60
2018-11-23T22:17:55.471Z,5.10
2018-11-23T22:20:25.206Z,4.80
2018-11-23T22:22:54.031Z,4.70
2018-11-23T22:25:23.979Z,5.00
2018-11-23T22:27:53.007Z,4.70
2018-11-23T22:30:24.191Z,4.90
2018-11-23T22:32:52.842Z,5.10
2018-11-23T22:35:21.850Z,4.70
2018-11-23T22:37:50.531Z,4.90
2018-11-23T22:40:20.240Z,4.80
2018-11-23T22:42:50.100Z,5.00
2018-11-23T22:45:18.778Z,5.30
2018-11-23T22:47:48.261Z,4.90
2018-11-23T22:52:47.989Z,4.80
2018-11-23T22:55:17.258Z,4.80
2018-11-23T22:57:45.937Z,4.80
2018-11-23T23:00:34.269Z,5.20
2018-11-23T23:03:03.163Z,4.80
2018-11-23T23:05:31.796Z,5.00
2018-11-23T23:08:00.419Z,4.90
2018-11-23T23:10:29.055Z,5.40
2018-11-23T23:12:57.642Z,5.10
2018-11-23T23:15:26.327Z,5.40
2018-11-23T23:17:54.996Z,4.60
2018-11-23T23:20:23.818Z,4.60
2018-11-23T23:22:52.475Z,4.90
2018-11-23T23:25:21.157Z,4.70
2018-11-23T23:27:49.760Z,5.10
2018-11-23T23:30:18.742Z,4.80
2018-11-23T23:32:48.158Z,4.90
2018-11-23T23:35:17.391Z,4.70
2018-11-23T23:37:46.103Z,4.90
2018-11-23T23:42:43.434Z,4.90
2018-11-23T23:47:37.849Z,5.10
2018-11-23T23:50:09.666Z,4.80
2018-11-23T23:52:38.231Z,5.00
2018-11-23T23:55:07.896Z,4.80
2018-11-23T23:57:36.534Z,4.40
